Hainesport Township, New Jersey
Current Conditions -  °F | °C
As of 3:54 AM on Thursday 27 Nov 2014 (Local Time) from KVAY Reporting Station
Overcast Overcast  
Wind Chill: 31°   Ceiling: 3900
Heat Index: 36°   Visibility: 10mi
Dew Point: 31°   Wind: 6mph
Humidity: 82%   Direction: 250°WSW
Pressure: 29.97"   Gusts: NA
Location:  39.9913°N, 74.8408°W
Report Text: KVAY 270854Z AUTO 25005KT 10SM OVC039 02/M01 A2997 RMK AO2 SLP150 T00221006 53017
Loading
Personal Weather Stations






























Interactive Weather Map New forecast layout! Learn more

10-Day Weather Forecast

Advertisements
Track Severe Weather on mobile